createdAt,value
2023-09-09T00:01:33.792Z,20.60
2023-09-09T00:04:01.116Z,20.62
2023-09-09T00:06:27.855Z,20.59
2023-09-09T00:08:54.421Z,20.56
2023-09-09T00:11:21.017Z,20.52
2023-09-09T00:13:48.573Z,20.46
2023-09-09T00:16:15.236Z,20.41
2023-09-09T00:18:41.890Z,20.39
2023-09-09T00:21:08.450Z,20.34
2023-09-09T00:23:35.297Z,20.30
2023-09-09T00:26:02.091Z,20.24
2023-09-09T00:28:28.681Z,20.19
2023-09-09T00:30:55.328Z,20.17
2023-09-09T00:33:21.945Z,20.17
2023-09-09T00:35:48.456Z,20.12
2023-09-09T00:38:15.147Z,20.08
2023-09-09T00:40:45.709Z,20.05
2023-09-09T00:43:12.385Z,20.02
2023-09-09T00:45:40.323Z,19.99
2023-09-09T00:48:07.087Z,19.95
2023-09-09T00:50:33.765Z,19.92
2023-09-09T00:53:00.547Z,19.88
2023-09-09T00:55:28.292Z,19.85
2023-09-09T00:57:54.991Z,19.84
2023-09-09T01:00:21.539Z,19.77
2023-09-09T01:02:48.258Z,19.77
2023-09-09T01:05:15.636Z,19.78
2023-09-09T01:07:48.755Z,19.74
2023-09-09T01:10:18.088Z,19.67
2023-09-09T01:12:45.533Z,19.65
2023-09-09T01:15:13.478Z,19.61
2023-09-09T01:17:41.536Z,19.58
2023-09-09T01:20:15.285Z,19.53
2023-09-09T01:22:44.758Z,19.49
2023-09-09T01:25:12.635Z,19.46
2023-09-09T01:27:39.701Z,19.44
2023-09-09T01:30:07.842Z,19.42
2023-09-09T01:32:34.651Z,19.38
2023-09-09T01:35:04.977Z,19.39
2023-09-09T01:37:32.557Z,19.36
2023-09-09T01:39:59.466Z,19.30
2023-09-09T01:42:26.068Z,19.27
2023-09-09T01:44:52.646Z,19.23
2023-09-09T01:47:21.901Z,19.21
2023-09-09T01:49:50.190Z,19.18
2023-09-09T01:52:16.858Z,19.19
2023-09-09T01:54:43.864Z,19.18
2023-09-09T01:57:10.371Z,19.15
2023-09-09T01:59:36.922Z,19.09
2023-09-09T02:02:03.648Z,19.01
2023-09-09T02:04:33.097Z,18.97
2023-09-09T02:06:59.968Z,18.92
2023-09-09T02:09:26.581Z,18.87
2023-09-09T02:11:53.329Z,18.84
2023-09-09T02:14:19.932Z,18.79
2023-09-09T02:16:46.525Z,18.77
2023-09-09T02:19:13.021Z,18.75
2023-09-09T02:21:39.623Z,18.72
2023-09-09T02:24:06.341Z,18.73
2023-09-09T02:26:32.824Z,18.74
2023-09-09T02:28:59.955Z,18.69
2023-09-09T02:31:26.507Z,18.65
2023-09-09T02:33:53.492Z,18.59
2023-09-09T02:36:20.128Z,18.54
2023-09-09T02:38:46.631Z,18.52
2023-09-09T02:41:13.245Z,18.49
2023-09-09T02:43:39.955Z,18.47
2023-09-09T02:46:07.658Z,18.44
2023-09-09T02:48:34.325Z,18.40
2023-09-09T02:51:00.893Z,18.35
2023-09-09T02:53:27.504Z,18.32
2023-09-09T02:55:54.167Z,18.26
2023-09-09T02:58:21.151Z,18.23
2023-09-09T03:00:48.949Z,18.21
2023-09-09T03:03:21.710Z,18.18
2023-09-09T03:05:48.612Z,18.11
2023-09-09T03:08:15.712Z,18.12
2023-09-09T03:10:42.412Z,18.09
2023-09-09T03:13:09.115Z,18.03
2023-09-09T03:15:35.617Z,18.02
2023-09-09T03:18:02.222Z,18.00
2023-09-09T03:20:28.958Z,17.97
2023-09-09T03:22:55.970Z,17.90
2023-09-09T03:25:22.606Z,17.86
2023-09-09T03:27:49.164Z,17.85
2023-09-09T03:30:15.726Z,17.79
2023-09-09T03:32:42.493Z,17.73
2023-09-09T03:35:09.952Z,17.67
2023-09-09T03:37:36.844Z,17.62
2023-09-09T03:40:06.700Z,17.57
2023-09-09T03:42:34.652Z,17.57
2023-09-09T03:45:01.310Z,17.55
2023-09-09T03:47:28.199Z,17.51
2023-09-09T03:49:55.162Z,17.46
2023-09-09T03:52:21.903Z,17.44
2023-09-09T03:54:48.389Z,17.40
2023-09-09T03:57:15.024Z,17.37
2023-09-09T03:59:41.582Z,17.35
2023-09-09T04:02:08.188Z,17.33
2023-09-09T04:04:34.892Z,17.27
2023-09-09T04:07:01.710Z,17.24
2023-09-09T04:09:28.256Z,17.23
2023-09-09T04:11:56.341Z,17.23
2023-09-09T04:14:22.882Z,17.19
2023-09-09T04:16:49.621Z,17.14
2023-09-09T04:19:16.232Z,17.11
2023-09-09T04:21:42.771Z,17.10
2023-09-09T04:24:09.647Z,17.05
2023-09-09T04:26:36.351Z,17.01
2023-09-09T04:29:03.338Z,16.99
2023-09-09T04:31:29.872Z,16.96
2023-09-09T04:33:56.408Z,16.94
2023-09-09T04:36:23.047Z,16.94
2023-09-09T04:38:49.677Z,16.92
2023-09-09T04:41:16.214Z,16.88
2023-09-09T04:43:42.969Z,16.83
2023-09-09T04:46:09.557Z,16.76
2023-09-09T04:48:36.517Z,16.77
2023-09-09T04:51:03.178Z,16.74
2023-09-09T04:53:29.812Z,16.73
2023-09-09T04:55:57.827Z,16.71
2023-09-09T04:58:26.394Z,16.70
2023-09-09T05:00:53.111Z,16.67
2023-09-09T05:03:21.101Z,16.60
2023-09-09T05:05:47.843Z,16.56
2023-09-09T05:08:14.396Z,16.57
2023-09-09T05:10:41.095Z,16.56
2023-09-09T05:13:07.674Z,16.55
2023-09-09T05:15:34.551Z,16.51
2023-09-09T05:18:01.193Z,16.51
2023-09-09T05:20:28.238Z,16.51
2023-09-09T05:22:55.338Z,16.52
2023-09-09T05:25:22.016Z,16.53
2023-09-09T05:27:48.563Z,16.53
2023-09-09T05:30:15.733Z,16.56
2023-09-09T05:32:42.785Z,16.55
2023-09-09T05:35:11.844Z,16.55
2023-09-09T05:37:38.787Z,16.57
2023-09-09T05:40:06.199Z,16.59
2023-09-09T05:42:32.991Z,16.62
2023-09-09T05:45:00.780Z,16.67
2023-09-09T05:47:27.496Z,16.70
2023-09-09T05:49:55.207Z,16.74
2023-09-09T05:52:21.888Z,16.81
2023-09-09T05:54:48.500Z,16.89
2023-09-09T05:57:15.081Z,16.92
2023-09-09T05:59:41.953Z,16.95
2023-09-09T06:02:10.646Z,16.97
2023-09-09T06:04:37.502Z,17.02
2023-09-09T06:07:08.489Z,17.07
2023-09-09T06:09:35.121Z,17.14
2023-09-09T06:12:03.238Z,17.12
2023-09-09T06:14:29.941Z,17.07
2023-09-09T06:16:57.559Z,17.07
2023-09-09T06:19:24.417Z,17.15
2023-09-09T06:21:51.448Z,17.22
2023-09-09T06:24:18.258Z,17.28
2023-09-09T06:26:44.951Z,17.30
2023-09-09T06:29:11.703Z,17.37
2023-09-09T06:31:38.382Z,17.39
2023-09-09T06:34:05.488Z,17.42
2023-09-09T06:36:32.183Z,17.46
2023-09-09T06:39:00.292Z,17.56
2023-09-09T06:41:26.861Z,17.64
2023-09-09T06:43:53.493Z,17.76
2023-09-09T06:46:20.034Z,17.77
2023-09-09T06:48:46.556Z,17.84
2023-09-09T06:51:13.971Z,17.97
2023-09-09T19:24:05.901Z,23.64
2023-09-09T19:26:32.490Z,23.62
2023-09-09T19:28:59.051Z,23.61
2023-09-09T19:31:25.857Z,23.59
2023-09-09T19:33:52.516Z,23.57
2023-09-09T19:36:19.318Z,23.55
2023-09-09T19:38:47.085Z,23.53
2023-09-09T19:41:15.819Z,23.48
2023-09-09T19:43:42.365Z,23.48
2023-09-09T19:46:10.329Z,23.45
2023-09-09T19:48:37.222Z,23.42
2023-09-09T19:51:04.406Z,23.41
2023-09-09T19:53:31.022Z,23.37
2023-09-09T19:55:57.663Z,23.34
2023-09-09T19:58:24.256Z,23.29
2023-09-09T20:00:51.014Z,23.25
2023-09-09T20:03:17.590Z,23.26
2023-09-09T20:05:49.179Z,23.24
2023-09-09T20:08:15.772Z,23.19
2023-09-09T20:10:45.670Z,23.15
2023-09-09T20:13:12.394Z,23.11
2023-09-09T20:15:42.650Z,23.06
2023-09-09T20:18:09.591Z,23.03
2023-09-09T20:20:40.049Z,22.93
2023-09-09T20:23:06.805Z,22.77
2023-09-09T20:25:33.536Z,22.69
2023-09-09T20:28:00.073Z,22.69
2023-09-09T20:30:27.007Z,22.66
2023-09-09T20:32:56.435Z,22.66
2023-09-09T20:35:34.098Z,22.62
2023-09-09T20:38:01.230Z,22.61
2023-09-09T20:40:28.534Z,22.64
2023-09-09T20:42:57.110Z,22.59
2023-09-09T20:45:24.958Z,22.54
2023-09-09T20:47:52.231Z,22.46
2023-09-09T20:50:21.686Z,22.45
2023-09-09T20:52:52.951Z,22.43
2023-09-09T20:55:21.608Z,22.40
2023-09-09T20:57:48.807Z,22.37
2023-09-09T21:00:16.835Z,22.36
2023-09-09T21:02:46.414Z,22.32
2023-09-09T21:05:13.943Z,22.27
2023-09-09T21:07:42.165Z,22.22
2023-09-09T21:10:12.618Z,22.19
2023-09-09T21:12:42.020Z,22.14
2023-09-09T21:15:09.728Z,22.12
2023-09-09T21:17:36.348Z,22.08
2023-09-09T21:20:04.603Z,22.03
2023-09-09T21:22:31.821Z,22.01
2023-09-09T21:25:02.159Z,21.96
2023-09-09T21:27:29.782Z,21.93
2023-09-09T21:29:56.568Z,21.91
2023-09-09T21:32:23.423Z,21.84
2023-09-09T21:34:51.966Z,21.79
2023-09-09T21:37:20.858Z,21.77
2023-09-09T21:39:48.247Z,21.73
2023-09-09T21:42:15.209Z,21.72
2023-09-09T21:44:44.468Z,21.68
2023-09-09T21:47:11.188Z,21.64
2023-09-09T21:49:37.824Z,21.59
2023-09-09T21:52:06.012Z,21.56
2023-09-09T21:54:32.632Z,21.54
2023-09-09T21:56:59.180Z,21.50
2023-09-09T21:59:25.741Z,21.47
2023-09-09T22:01:52.293Z,21.43
2023-09-09T22:04:18.784Z,21.37
2023-09-09T22:06:45.371Z,21.34
2023-09-09T22:09:12.881Z,21.33
2023-09-09T22:11:39.553Z,21.31
2023-09-09T22:14:06.212Z,21.29
2023-09-09T22:16:33.235Z,21.22
2023-09-09T22:18:59.853Z,21.21
2023-09-09T22:21:26.769Z,21.20
2023-09-09T22:23:53.423Z,21.16
2023-09-09T22:26:24.999Z,21.15
2023-09-09T22:28:51.804Z,21.11
2023-09-09T22:31:19.509Z,21.04
2023-09-09T22:33:46.075Z,21.00
2023-09-09T22:36:12.651Z,20.99
2023-09-09T22:38:39.437Z,20.98
2023-09-09T22:41:06.844Z,20.93
2023-09-09T22:43:33.433Z,20.91
2023-09-09T22:46:06.122Z,20.94
2023-09-09T22:48:32.932Z,20.88
2023-09-09T22:51:00.006Z,20.85
2023-09-09T22:53:26.506Z,20.84
2023-09-09T22:55:53.121Z,20.78
2023-09-09T22:58:19.712Z,20.73
2023-09-09T23:00:46.189Z,20.75
2023-09-09T23:03:12.901Z,20.70
2023-09-09T23:05:39.765Z,20.65
2023-09-09T23:08:06.549Z,20.65
2023-09-09T23:10:33.091Z,20.63
2023-09-09T23:12:59.676Z,20.61
2023-09-09T23:15:26.692Z,20.56
2023-09-09T23:17:53.315Z,20.55
2023-09-09T23:20:20.884Z,20.49
2023-09-09T23:22:47.524Z,20.48
2023-09-09T23:25:15.649Z,20.47
2023-09-09T23:27:42.468Z,20.43
2023-09-09T23:30:10.824Z,20.43
2023-09-09T23:32:37.485Z,20.40
2023-09-09T23:35:04.363Z,20.34
2023-09-09T23:37:31.453Z,20.34
2023-09-09T23:39:58.265Z,20.30
2023-09-09T23:42:24.773Z,20.30
2023-09-09T23:44:51.362Z,20.27
2023-09-09T23:47:18.166Z,20.22
2023-09-09T23:49:44.856Z,20.20
2023-09-09T23:52:11.586Z,20.18
2023-09-09T23:54:38.088Z,20.13
2023-09-09T23:57:06.173Z,20.12
2023-09-09T23:59:33.075Z,20.07
